Terminal Aerodrome Forecast
Issued by NWS Cleveland, OH

Home | Current Version | Previous Version | Graphics & Text | Print | Product List | Glossary Off
Versions: 1 2 3 4 5 6 7 8 9 10 11 12 13 14 15 16 17 18 19 20

000
FTUS41 KCLE 310200 AAA
TAFYNG
TAF AMD
KYNG 310230Z 3103/3124 24005KT P6SM SCT040 BKN080
      TEMPO 3104/3108 3SM -TSRA BKN030CB
     FM310800 23004KT 4SM BR SCT050 BKN120
     FM311500 24008KT P6SM BKN045=

USA.gov is the U.S. government's official web portal to all federal, state and local government web resources and services.